Time;durP1;ratioP1;P1;durP2;ratioP2;P2;SDS_P1;SDS_P2;PMS_P1;PMS_P2;Temp;Humidity;BMP_temperature;BMP_pressure;BME280_temperature;BME280_humidity;BME280_pressure;Samples;Min_cycle;Max_cycle;Signal;HPM_P1;HPM_P2
2021/04/19 00:02:01;;;;;;;17.37;15.87;;;23.90;96.00;;;;;;3625705;39;20481;-49
2021/04/19 00:04:28;;;;;;;19.77;17.67;;;23.90;96.00;;;;;;3617670;39;20594;-47
2021/04/19 00:06:54;;;;;;;18.73;17.00;;;23.90;96.00;;;;;;3616926;39;20517;-47
2021/04/19 00:09:21;;;;;;;17.53;16.23;;;23.90;95.90;;;;;;3616274;39;20539;-47
2021/04/19 00:11:48;;;;;;;19.10;17.30;;;23.90;95.90;;;;;;3619196;39;20481;-47
2021/04/19 00:14:15;;;;;;;19.23;17.20;;;23.90;95.90;;;;;;3627074;39;20548;-47
2021/04/19 00:16:42;;;;;;;17.80;16.37;;;23.90;95.90;;;;;;3627175;39;21046;-48
2021/04/19 00:19:09;;;;;;;18.27;16.67;;;23.90;95.90;;;;;;3627278;39;20493;-47
2021/04/19 00:21:35;;;;;;;21.53;17.47;;;23.90;95.90;;;;;;3626954;39;20474;-46
2021/04/19 00:24:02;;;;;;;19.77;17.90;;;23.90;95.80;;;;;;3627244;39;20480;-47
2021/04/19 00:26:28;;;;;;;18.00;16.60;;;23.90;95.80;;;;;;3627263;39;20892;-48
2021/04/19 00:28:55;;;;;;;17.00;15.73;;;23.90;95.80;;;;;;3628467;39;20524;-47
2021/04/19 00:31:24;;;;;;;18.40;16.77;;;23.90;95.80;;;;;;3621177;39;20483;-48
2021/04/19 00:33:59;;;;;;;17.30;16.20;;;23.90;95.80;;;;;;3621633;39;20484;-48
2021/04/19 00:36:26;;;;;;;18.67;16.90;;;23.90;95.80;;;;;;3621025;39;20470;-47
2021/04/19 00:38:54;;;;;;;18.53;17.00;;;23.90;95.70;;;;;;3618911;39;20481;-47
2021/04/19 00:41:20;;;;;;;18.47;16.87;;;23.90;95.70;;;;;;3626224;39;21085;-47
2021/04/19 00:43:47;;;;;;;17.80;16.43;;;23.90;95.70;;;;;;3627081;39;20503;-46
2021/04/19 00:46:14;;;;;;;19.47;17.70;;;23.90;95.70;;;;;;3628895;39;20484;-47
2021/04/19 00:48:42;;;;;;;18.20;16.60;;;23.90;95.70;;;;;;3628811;39;20563;-48
2021/04/19 00:51:09;;;;;;;17.97;16.27;;;23.90;95.70;;;;;;3617688;39;20501;-48
2021/04/19 00:53:36;;;;;;;17.30;15.90;;;23.90;95.70;;;;;;3628245;39;20472;-48
2021/04/19 00:56:04;;;;;;;18.13;16.47;;;23.90;95.70;;;;;;3628286;39;20473;-47
2021/04/19 00:58:33;;;;;;;18.30;16.43;;;23.90;95.70;;;;;;3627555;39;20479;-48
2021/04/19 01:01:01;;;;;;;17.90;16.20;;;23.90;95.60;;;;;;3627838;39;20551;-47
2021/04/19 01:03:28;;;;;;;18.27;16.40;;;23.90;95.60;;;;;;3619167;39;20524;-47
2021/04/19 01:05:56;;;;;;;18.17;16.57;;;23.90;95.60;;;;;;3629330;39;20480;-48
2021/04/19 01:08:25;;;;;;;18.30;16.50;;;23.90;95.60;;;;;;3628507;39;20483;-47
2021/04/19 01:10:52;;;;;;;17.50;16.17;;;23.90;95.60;;;;;;3628291;39;20499;-47
2021/04/19 01:13:19;;;;;;;17.53;16.30;;;23.90;95.50;;;;;;3629092;39;20485;-48
2021/04/19 01:15:46;;;;;;;17.23;16.03;;;23.90;95.50;;;;;;3629316;39;20537;-47
2021/04/19 01:18:13;;;;;;;18.03;16.67;;;23.90;95.50;;;;;;3627356;39;20701;-49
2021/04/19 01:20:45;;;;;;;17.80;16.37;;;24.00;95.50;;;;;;3618947;39;20505;-47
2021/04/19 01:23:13;;;;;;;18.50;16.70;;;23.90;95.50;;;;;;3628741;39;20465;-47
2021/04/19 01:25:40;;;;;;;18.27;16.90;;;23.90;95.50;;;;;;3619439;39;20481;-47
2021/04/19 01:28:08;;;;;;;18.50;16.80;;;23.90;95.50;;;;;;3628823;39;20477;-47
2021/04/19 01:30:38;;;;;;;18.27;16.77;;;23.90;95.50;;;;;;3633773;39;20484;-47
2021/04/19 01:33:06;;;;;;;17.40;16.20;;;24.00;95.50;;;;;;3628093;39;20467;-47
2021/04/19 01:35:33;;;;;;;18.63;17.13;;;24.00;95.50;;;;;;3629295;39;20472;-47
2021/04/19 01:38:01;;;;;;;17.90;16.30;;;23.90;95.40;;;;;;3628666;39;20476;-44
2021/04/19 01:40:28;;;;;;;18.43;16.87;;;24.00;95.50;;;;;;3629207;39;20476;-44
2021/04/19 01:42:55;;;;;;;17.17;15.73;;;24.00;95.40;;;;;;3628449;39;20480;-44
2021/04/19 01:45:22;;;;;;;17.73;16.53;;;24.00;95.40;;;;;;3627112;39;20481;-43
2021/04/19 01:47:50;;;;;;;17.93;16.50;;;24.00;95.40;;;;;;3619950;39;20560;-44
2021/04/19 01:50:20;;;;;;;17.90;16.37;;;23.90;95.30;;;;;;3629356;39;20541;-44
2021/04/19 01:52:50;;;;;;;16.83;15.73;;;24.00;95.40;;;;;;3629403;39;20505;-45
2021/04/19 01:55:20;;;;;;;17.67;16.27;;;24.00;95.30;;;;;;3629015;39;20476;-44
2021/04/19 01:57:51;;;;;;;18.37;16.87;;;24.00;95.30;;;;;;3619177;39;20571;-44
2021/04/19 02:00:21;;;;;;;18.37;16.97;;;24.00;95.30;;;;;;3619793;39;20563;-44
2021/04/19 02:03:04;;;;;;;17.27;16.10;;;24.00;95.30;;;;;;3627198;39;20489;-47
2021/04/19 02:05:44;;;;;;;18.03;16.60;;;24.00;95.30;;;;;;3619103;39;20469;-45
2021/04/19 02:08:19;;;;;;;17.47;16.03;;;24.00;95.30;;;;;;3627873;39;20854;-44
2021/04/19 02:10:53;;;;;;;16.83;15.73;;;24.00;95.20;;;;;;3627841;39;20573;-44
2021/04/19 02:13:33;;;;;;;17.73;16.23;;;24.00;95.20;;;;;;3628445;39;20477;-44
2021/04/19 02:16:06;;;;;;;16.70;15.60;;;24.00;95.20;;;;;;3618304;39;20475;-45
2021/04/19 02:18:43;;;;;;;17.97;16.67;;;24.00;95.20;;;;;;3628530;39;20539;-43
2021/04/19 02:21:14;;;;;;;17.37;16.07;;;24.00;95.20;;;;;;3627763;39;20467;-44
2021/04/19 02:23:53;;;;;;;16.63;15.73;;;24.00;95.20;;;;;;3627865;39;20475;-43
2021/04/19 02:26:29;;;;;;;16.90;15.70;;;24.00;95.20;;;;;;3618818;39;20564;-44
2021/04/19 02:29:03;;;;;;;17.30;16.07;;;24.00;95.10;;;;;;3628336;39;20572;-44
2021/04/19 02:31:34;;;;;;;17.30;16.10;;;24.00;95.10;;;;;;3627184;39;20532;-44
2021/04/19 02:34:03;;;;;;;17.00;15.70;;;24.00;95.10;;;;;;3627979;39;20468;-44
2021/04/19 02:36:31;;;;;;;18.00;16.80;;;24.00;95.10;;;;;;3617683;39;20476;-44
2021/04/19 02:39:00;;;;;;;16.80;15.40;;;24.00;95.10;;;;;;3628541;39;20521;-44
2021/04/19 02:41:29;;;;;;;17.40;16.03;;;24.10;95.10;;;;;;3618437;39;20477;-45
2021/04/19 02:43:59;;;;;;;17.20;16.10;;;24.10;95.10;;;;;;3627169;39;20572;-43
2021/04/19 02:46:39;;;;;;;17.50;16.20;;;24.00;95.00;;;;;;3626783;39;20869;-44
2021/04/19 02:49:08;;;;;;;18.27;17.07;;;24.10;95.10;;;;;;3627662;39;20475;-43
2021/04/19 02:51:35;;;;;;;16.30;15.33;;;24.10;95.10;;;;;;3626542;39;20921;-44
2021/04/19 02:54:02;;;;;;;17.47;16.07;;;24.00;95.00;;;;;;3627816;39;20473;-45
2021/04/19 02:56:33;;;;;;;17.10;15.90;;;24.00;95.00;;;;;;3627581;39;20472;-45
2021/04/19 02:59:04;;;;;;;18.70;17.00;;;24.10;95.00;;;;;;3628075;39;20476;-44
2021/04/19 03:01:39;;;;;;;17.20;16.20;;;24.00;95.00;;;;;;3628101;39;21036;-44
2021/04/19 03:04:08;;;;;;;17.00;16.00;;;24.10;95.00;;;;;;3627970;39;20465;-44
2021/04/19 03:06:40;;;;;;;17.87;16.47;;;24.10;95.00;;;;;;3627480;39;20469;-44
2021/04/19 03:09:12;;;;;;;17.90;16.63;;;24.00;94.90;;;;;;3627330;39;20679;-44
2021/04/19 03:11:44;;;;;;;16.90;15.87;;;24.00;94.90;;;;;;3618740;39;20485;-44
2021/04/19 03:14:14;;;;;;;16.67;15.47;;;24.10;94.90;;;;;;3617443;39;20508;-45
2021/04/19 03:17:00;;;;;;;17.77;16.53;;;24.10;94.90;;;;;;3626769;39;20472;-44
2021/04/19 03:19:47;;;;;;;18.33;17.03;;;24.10;94.90;;;;;;3609722;39;20477;-43
2021/04/19 03:22:16;;;;;;;19.00;17.50;;;24.10;94.90;;;;;;3618634;39;20510;-45
2021/04/19 03:24:44;;;;;;;17.97;16.87;;;24.10;94.90;;;;;;3608282;39;20497;-44
2021/04/19 03:27:21;;;;;;;17.40;16.40;;;24.10;94.80;;;;;;3607884;39;20822;-44
2021/04/19 03:29:58;;;;;;;17.57;16.40;;;24.00;94.80;;;;;;3617958;39;20578;-45
2021/04/19 03:32:32;;;;;;;17.20;16.10;;;24.10;94.80;;;;;;3607531;39;20514;-44
2021/04/19 03:35:06;;;;;;;18.03;16.80;;;24.00;94.80;;;;;;3607848;39;20824;-44
2021/04/19 03:37:37;;;;;;;17.47;16.43;;;24.10;94.90;;;;;;3607651;39;20866;-44
2021/04/19 03:40:09;;;;;;;18.10;17.00;;;24.00;94.80;;;;;;3606266;39;20850;-44
2021/04/19 03:42:41;;;;;;;18.00;16.90;;;24.00;94.80;;;;;;3623393;39;20477;-45
2021/04/19 03:45:15;;;;;;;18.87;17.27;;;24.00;94.80;;;;;;3626287;39;20873;-45
2021/04/19 03:48:03;;;;;;;17.40;16.37;;;24.10;94.80;;;;;;3625615;39;20710;-44
2021/04/19 03:50:56;;;;;;;18.73;17.43;;;24.10;94.70;;;;;;3625275;39;20555;-44
2021/04/19 03:53:26;;;;;;;18.07;16.90;;;24.20;94.70;;;;;;3607156;39;20474;-44
2021/04/19 03:55:55;;;;;;;18.37;17.07;;;24.20;94.60;;;;;;3616487;39;20517;-45
2021/04/19 03:58:27;;;;;;;19.00;17.63;;;24.20;94.60;;;;;;3607722;39;20582;-44
2021/04/19 04:00:57;;;;;;;18.17;17.07;;;24.20;94.50;;;;;;3607729;39;20489;-45
2021/04/19 04:03:45;;;;;;;19.23;17.83;;;24.30;94.50;;;;;;3608946;39;20482;-45
2021/04/19 04:06:18;;;;;;;18.67;17.27;;;24.30;94.40;;;;;;3617430;39;20469;-43
2021/04/19 04:08:46;;;;;;;18.30;17.03;;;24.30;94.40;;;;;;3608146;39;20473;-45
2021/04/19 04:11:16;;;;;;;17.97;16.87;;;24.30;94.40;;;;;;3627508;39;20488;-45
2021/04/19 04:13:46;;;;;;;18.23;17.00;;;24.40;94.40;;;;;;3618625;39;20475;-45
2021/04/19 04:16:13;;;;;;;18.80;17.17;;;24.40;94.30;;;;;;3618425;39;20814;-45
2021/04/19 04:18:57;;;;;;;18.67;17.47;;;24.40;94.30;;;;;;3617561;39;20487;-44
2021/04/19 04:21:27;;;;;;;18.83;17.57;;;24.40;94.30;;;;;;3616969;39;20495;-45
2021/04/19 04:24:00;;;;;;;19.03;17.80;;;24.40;94.20;;;;;;3617162;39;20468;-44
2021/04/19 04:26:29;;;;;;;18.70;17.70;;;24.40;94.20;;;;;;3616863;39;20485;-45
2021/04/19 04:28:58;;;;;;;19.53;18.33;;;24.50;94.20;;;;;;3626010;39;20490;-43
2021/04/19 04:31:31;;;;;;;18.30;16.93;;;24.50;94.20;;;;;;3617036;39;21011;-44
2021/04/19 04:34:03;;;;;;;19.40;18.10;;;24.50;94.10;;;;;;3616842;39;20531;-45
2021/04/19 04:36:30;;;;;;;19.33;17.90;;;24.50;94.10;;;;;;3613173;39;20469;-45
2021/04/19 04:39:03;;;;;;;18.57;17.33;;;24.60;94.10;;;;;;3615762;39;20485;-45
2021/04/19 04:41:37;;;;;;;18.60;17.50;;;24.60;94.00;;;;;;3611678;39;20478;-45
2021/04/19 04:44:07;;;;;;;18.47;17.27;;;24.60;94.00;;;;;;3614713;39;20481;-45
2021/04/19 04:46:39;;;;;;;18.20;16.83;;;24.60;94.00;;;;;;3615116;39;20568;-44
2021/04/19 04:49:10;;;;;;;18.77;17.80;;;24.60;93.90;;;;;;3616494;39;20504;-45
2021/04/19 04:51:39;;;;;;;18.17;16.97;;;24.60;93.90;;;;;;3612402;39;20473;-45
2021/04/19 04:54:10;;;;;;;16.83;15.93;;;24.60;93.80;;;;;;3610083;39;20468;-44
2021/04/19 04:56:41;;;;;;;17.83;16.60;;;24.60;93.80;;;;;;3612379;39;21275;-44
2021/04/19 04:59:09;;;;;;;18.83;17.70;;;24.70;93.80;;;;;;3614926;39;20502;-44
2021/04/19 05:01:38;;;;;;;18.43;17.30;;;24.70;93.80;;;;;;3611666;39;20489;-44
2021/04/19 05:04:06;;;;;;;19.27;17.90;;;24.70;93.80;;;;;;3617578;39;20556;-45
2021/04/19 05:06:34;;;;;;;19.00;17.73;;;24.80;93.80;;;;;;3604951;39;20738;-44
2021/04/19 05:09:01;;;;;;;18.23;17.13;;;24.80;93.70;;;;;;3615132;39;20512;-45
2021/04/19 05:11:28;;;;;;;17.43;16.23;;;24.80;93.70;;;;;;3614234;39;20469;-44
2021/04/19 05:13:59;;;;;;;17.83;16.70;;;24.80;93.70;;;;;;3613470;39;20487;-44
2021/04/19 05:16:28;;;;;;;17.17;16.30;;;24.80;93.60;;;;;;3613584;39;20473;-44
2021/04/19 05:18:55;;;;;;;18.10;17.03;;;24.80;93.60;;;;;;3615654;39;20934;-46
2021/04/19 05:21:21;;;;;;;17.90;16.90;;;24.90;93.60;;;;;;3613669;39;20487;-44
2021/04/19 05:23:48;;;;;;;17.17;16.17;;;24.90;93.60;;;;;;3612773;39;20484;-44
2021/04/19 05:26:15;;;;;;;19.60;18.20;;;24.80;93.50;;;;;;3611034;39;20592;-45
2021/04/19 05:28:42;;;;;;;18.60;17.60;;;24.80;93.50;;;;;;3612342;39;21274;-45
2021/04/19 05:31:10;;;;;;;18.97;17.70;;;24.80;93.50;;;;;;3613278;39;20510;-45
2021/04/19 05:33:38;;;;;;;17.77;16.80;;;24.80;93.60;;;;;;3619681;39;21296;-44
2021/04/19 05:36:06;;;;;;;17.80;16.90;;;24.80;93.40;;;;;;3618174;39;20541;-45
2021/04/19 05:38:33;;;;;;;17.43;16.53;;;24.90;93.50;;;;;;3619041;39;20879;-44
2021/04/19 05:41:00;;;;;;;19.33;18.03;;;24.90;93.40;;;;;;3619293;39;20471;-44
2021/04/19 05:43:27;;;;;;;17.63;16.73;;;24.90;93.40;;;;;;3617586;39;20488;-43
2021/04/19 05:45:56;;;;;;;19.80;18.50;;;24.90;93.30;;;;;;3615615;39;20542;-44
2021/04/19 05:48:23;;;;;;;17.10;16.20;;;25.00;93.30;;;;;;3616707;39;20473;-45
2021/04/19 05:50:55;;;;;;;18.17;16.87;;;25.00;93.30;;;;;;3614032;39;20871;-44
2021/04/19 05:53:22;;;;;;;17.67;16.57;;;25.00;93.30;;;;;;3611543;39;20609;-44
2021/04/19 05:55:52;;;;;;;17.43;16.53;;;24.90;93.30;;;;;;3604583;39;20861;-46
2021/04/19 05:58:26;;;;;;;17.83;16.93;;;25.00;93.30;;;;;;3601846;39;20823;-44
2021/04/19 06:00:56;;;;;;;18.37;17.37;;;25.00;93.30;;;;;;3603365;39;20493;-45
2021/04/19 06:03:26;;;;;;;18.13;17.23;;;25.00;93.20;;;;;;3603365;39;20552;-44
2021/04/19 06:06:02;;;;;;;17.40;16.50;;;25.00;93.20;;;;;;3601062;39;20905;-45
2021/04/19 06:08:34;;;;;;;17.27;16.37;;;25.00;93.20;;;;;;3602041;39;20503;-45
2021/04/19 06:11:16;;;;;;;17.80;16.80;;;25.00;93.20;;;;;;3593595;39;20828;-46
2021/04/19 06:13:57;;;;;;;18.43;17.33;;;25.00;93.20;;;;;;3592149;39;20521;-44
2021/04/19 06:16:25;;;;;;;19.10;17.97;;;25.00;93.20;;;;;;3602116;39;20775;-44
2021/04/19 06:18:53;;;;;;;18.03;16.87;;;25.00;93.20;;;;;;3602040;39;20490;-44
2021/04/19 06:21:22;;;;;;;18.57;17.37;;;25.00;93.20;;;;;;3602245;39;20967;-44
2021/04/19 06:23:50;;;;;;;17.97;16.80;;;25.00;93.20;;;;;;3591276;39;20486;-45
2021/04/19 06:26:17;;;;;;;17.83;16.73;;;25.00;93.20;;;;;;3602391;39;21084;-45
2021/04/19 06:28:49;;;;;;;17.57;16.67;;;25.00;93.30;;;;;;3602987;39;20835;-45
2021/04/19 06:31:18;;;;;;;18.53;17.43;;;25.00;93.60;;;;;;3597672;39;20536;-44
2021/04/19 06:34:03;;;;;;;18.73;17.50;;;25.00;93.30;;;;;;3601872;39;20639;-44
2021/04/19 06:36:32;;;;;;;17.73;16.70;;;25.00;93.30;;;;;;3602820;39;20977;-45
2021/04/19 06:38:59;;;;;;;17.60;16.60;;;25.00;93.30;;;;;;3590883;39;20478;-44
2021/04/19 06:41:26;;;;;;;18.47;17.27;;;25.10;93.30;;;;;;3601826;39;20486;-44
2021/04/19 06:43:55;;;;;;;18.37;17.17;;;25.00;93.30;;;;;;3603516;39;20694;-45
2021/04/19 06:46:23;;;;;;;17.10;16.03;;;25.00;93.30;;;;;;3600319;39;20488;-43
2021/04/19 06:48:50;;;;;;;19.00;17.60;;;24.90;93.40;;;;;;3602397;39;20471;-44
2021/04/19 06:51:35;;;;;;;19.43;17.77;;;24.90;93.60;;;;;;3603457;39;20770;-45
2021/04/19 06:54:04;;;;;;;17.63;16.60;;;24.80;93.60;;;;;;3603821;39;21480;-45
2021/04/19 06:56:37;;;;;;;18.57;17.13;;;24.80;94.00;;;;;;3603088;39;20516;-44
2021/04/19 06:59:05;;;;;;;18.07;16.67;;;24.80;93.70;;;;;;3603787;39;20879;-50
2021/04/19 07:01:35;;;;;;;18.77;17.00;;;24.90;93.60;;;;;;3597807;39;20492;-49
2021/04/19 07:04:04;;;;;;;17.90;16.67;;;24.80;93.70;;;;;;3600875;39;20475;-50
2021/04/19 07:06:33;;;;;;;17.10;16.10;;;24.80;93.80;;;;;;3600994;39;20834;-48
2021/04/19 07:09:05;;;;;;;10.07;9.30;;;24.90;93.80;;;;;;3599019;39;20504;-42
2021/04/19 07:11:37;;;;;;;10.73;9.70;;;24.80;93.90;;;;;;3598330;39;20821;-43
2021/04/19 07:14:07;;;;;;;10.27;9.30;;;24.80;94.00;;;;;;3599589;39;20665;-42
2021/04/19 07:16:34;;;;;;;10.30;9.30;;;24.90;94.00;;;;;;3601095;39;20480;-42
2021/04/19 07:19:01;;;;;;;9.97;8.80;;;24.90;94.00;;;;;;3604705;39;20477;-43
2021/04/19 07:21:28;;;;;;;10.20;9.30;;;24.90;94.00;;;;;;3604393;39;20537;-43
2021/04/19 07:23:55;;;;;;;9.87;9.07;;;24.90;94.00;;;;;;3596174;39;20492;-43
2021/04/19 07:26:23;;;;;;;10.73;9.80;;;24.90;94.00;;;;;;3598120;39;20492;-42
2021/04/19 07:28:50;;;;;;;10.07;9.13;;;24.90;94.00;;;;;;3601979;39;20486;-43
2021/04/19 07:31:17;;;;;;;17.80;10.60;;;24.90;94.00;;;;;;3603059;39;21143;-43
2021/04/19 07:33:44;;;;;;;10.40;9.43;;;24.80;94.00;;;;;;3605395;39;20535;-42
2021/04/19 07:36:25;;;;;;;9.77;9.13;;;24.80;94.00;;;;;;3607477;39;20497;-42
2021/04/19 07:38:53;;;;;;;11.10;9.80;;;24.80;94.00;;;;;;3602225;39;20481;-43
2021/04/19 07:41:20;;;;;;;10.40;9.60;;;24.80;93.90;;;;;;3602491;39;20492;-42
2021/04/19 07:43:48;;;;;;;10.30;9.30;;;24.80;93.90;;;;;;3598214;39;21046;-43
2021/04/19 07:46:17;;;;;;;11.20;9.60;;;24.80;94.20;;;;;;3600528;39;20653;-44
2021/04/19 07:48:45;;;;;;;10.03;9.30;;;24.80;93.90;;;;;;3600650;39;20874;-44
2021/04/19 07:51:30;;;;;;;9.90;9.03;;;24.80;93.80;;;;;;3600029;39;21040;-43
2021/04/19 07:54:18;;;;;;;9.80;9.00;;;24.80;93.90;;;;;;3600665;39;20867;-42
2021/04/19 07:56:47;;;;;;;9.83;8.93;;;24.80;93.90;;;;;;3596266;39;20584;-42
2021/04/19 07:59:26;;;;;;;10.47;9.47;;;24.80;93.80;;;;;;3599918;39;20600;-43
2021/04/19 08:01:57;;;;;;;11.10;10.10;;;24.80;93.80;;;;;;3599665;39;20681;-43
2021/04/19 08:04:24;;;;;;;10.23;9.37;;;24.80;93.80;;;;;;3597907;39;20759;-43
2021/04/19 08:06:51;;;;;;;10.07;9.03;;;24.80;93.90;;;;;;3598144;39;20792;-42
2021/04/19 08:09:22;;;;;;;10.53;9.70;;;24.80;93.90;;;;;;3595008;39;20657;-43
2021/04/19 08:11:51;;;;;;;10.50;9.50;;;24.80;93.90;;;;;;3596756;39;20512;-43
2021/04/19 08:14:17;;;;;;;10.00;9.20;;;24.70;93.80;;;;;;3597409;39;21032;-43
2021/04/19 08:16:45;;;;;;;10.10;9.30;;;24.70;93.80;;;;;;3601195;39;20929;-43
2021/04/19 08:19:11;;;;;;;10.20;9.40;;;24.70;93.80;;;;;;3600421;39;20504;-43
2021/04/19 08:21:38;;;;;;;11.90;9.90;;;24.70;93.80;;;;;;3600820;39;20753;-43
2021/04/19 08:24:13;;;;;;;10.90;10.20;;;24.70;93.80;;;;;;3600126;39;20774;-43
2021/04/19 08:26:49;;;;;;;10.47;9.47;;;24.70;93.90;;;;;;3597486;39;20795;-43
2021/04/19 08:29:38;;;;;;;10.70;9.90;;;24.70;93.90;;;;;;3607742;39;20605;-42
2021/04/19 08:32:07;;;;;;;9.87;9.17;;;24.70;93.90;;;;;;3609467;39;20564;-44
2021/04/19 08:34:35;;;;;;;9.47;8.73;;;24.70;93.90;;;;;;3607641;39;20475;-43
2021/04/19 08:37:03;;;;;;;9.97;9.23;;;24.70;93.90;;;;;;3596407;39;20756;-42
2021/04/19 08:39:31;;;;;;;10.93;10.07;;;24.70;93.90;;;;;;3607675;39;20528;-43
2021/04/19 08:42:00;;;;;;;10.67;9.87;;;24.70;93.90;;;;;;3601489;39;20949;-43
2021/04/19 08:44:27;;;;;;;9.63;9.13;;;24.60;93.90;;;;;;3610372;39;20512;-43
2021/04/19 08:46:55;;;;;;;11.57;10.57;;;24.70;93.90;;;;;;3609302;39;20487;-43
2021/04/19 08:49:23;;;;;;;10.00;9.10;;;24.70;93.90;;;;;;3599695;39;20496;-43
2021/04/19 08:51:50;;;;;;;10.20;9.50;;;24.60;93.90;;;;;;3607382;39;20568;-42
2021/04/19 08:54:17;;;;;;;10.07;9.20;;;24.60;93.90;;;;;;3611002;39;20477;-42
2021/04/19 08:56:43;;;;;;;11.30;10.20;;;24.60;93.90;;;;;;3609780;39;21215;-43
2021/04/19 08:59:11;;;;;;;10.03;9.17;;;24.60;93.90;;;;;;3607523;39;20479;-42
2021/04/19 09:01:38;;;;;;;10.57;9.57;;;24.60;93.90;;;;;;3606840;39;20508;-43
2021/04/19 09:04:06;;;;;;;9.30;8.80;;;24.60;93.90;;;;;;3604081;39;20483;-44
2021/04/19 09:06:41;;;;;;;10.17;9.43;;;24.60;94.00;;;;;;3606332;39;20916;-42
2021/04/19 09:09:12;;;;;;;9.40;8.80;;;24.60;94.00;;;;;;3608550;39;20495;-44
2021/04/19 09:11:38;;;;;;;10.43;9.40;;;24.60;94.00;;;;;;3599348;39;20660;-44
2021/04/19 09:14:06;;;;;;;9.80;9.10;;;24.60;94.00;;;;;;3595968;39;20482;-43
2021/04/19 09:16:36;;;;;;;9.57;8.80;;;24.60;94.00;;;;;;3595419;39;20604;-43
2021/04/19 09:19:04;;;;;;;9.87;9.23;;;24.60;94.00;;;;;;3584742;39;20481;-43
2021/04/19 09:21:39;;;;;;;9.97;9.03;;;24.50;93.90;;;;;;3601020;39;21167;-44
2021/04/19 09:24:09;;;;;;;9.47;8.67;;;24.50;94.00;;;;;;3600688;39;20728;-42
2021/04/19 09:26:50;;;;;;;8.63;8.00;;;24.60;94.00;;;;;;3595106;39;20505;-43
2021/04/19 09:29:45;;;;;;;9.50;8.67;;;24.50;94.00;;;;;;3597848;39;20489;-43
2021/04/19 09:32:20;;;;;;;8.43;7.93;;;24.50;94.00;;;;;;3587450;39;20563;-43
2021/04/19 09:34:49;;;;;;;8.90;8.30;;;24.50;94.00;;;;;;3602165;39;20471;-43
2021/04/19 09:37:17;;;;;;;11.63;9.33;;;24.50;94.00;;;;;;3602215;39;20472;-43
2021/04/19 09:39:50;;;;;;;9.73;8.70;;;24.50;94.00;;;;;;3610976;39;20933;-42
2021/04/19 09:42:38;;;;;;;9.13;8.43;;;24.50;94.00;;;;;;3605565;39;20472;-42
2021/04/19 09:45:06;;;;;;;9.27;8.47;;;24.50;94.00;;;;;;3609645;39;20496;-43
2021/04/19 09:47:51;;;;;;;8.97;8.33;;;24.50;94.10;;;;;;3607565;39;21096;-44
2021/04/19 09:50:22;;;;;;;8.90;8.17;;;24.50;94.10;;;;;;3595663;39;20552;-43
2021/04/19 09:52:51;;;;;;;9.43;8.73;;;24.50;94.10;;;;;;3597155;39;20472;-44
2021/04/19 09:55:18;;;;;;;9.60;8.90;;;24.50;94.10;;;;;;3599161;39;20573;-42
2021/04/19 09:57:45;;;;;;;10.53;9.63;;;24.50;94.10;;;;;;3595966;39;20493;-43
2021/04/19 10:00:14;;;;;;;9.50;8.80;;;24.50;94.10;;;;;;3604903;39;20478;-43
2021/04/19 10:02:41;;;;;;;9.57;8.97;;;24.40;94.10;;;;;;3586160;39;20492;-43
2021/04/19 10:05:10;;;;;;;9.70;9.00;;;24.50;94.20;;;;;;3598545;39;20467;-42
2021/04/19 10:07:41;;;;;;;9.00;8.50;;;24.50;94.20;;;;;;3599382;39;20480;-44
2021/04/19 10:10:09;;;;;;;9.57;8.77;;;24.50;94.20;;;;;;3608779;39;20496;-42
2021/04/19 10:12:44;;;;;;;8.77;8.27;;;24.50;94.20;;;;;;3609960;39;20484;-43
2021/04/19 10:15:17;;;;;;;9.07;8.53;;;24.40;94.10;;;;;;3610086;39;20472;-43
2021/04/19 10:17:44;;;;;;;9.33;8.73;;;24.40;94.10;;;;;;3606897;39;20562;-43
2021/04/19 10:20:19;;;;;;;9.50;8.90;;;24.40;94.10;;;;;;3603408;39;20585;-43
2021/04/19 10:23:05;;;;;;;10.27;9.57;;;24.40;94.20;;;;;;3599567;39;21025;-44
2021/04/19 10:25:32;;;;;;;9.20;8.60;;;24.50;94.20;;;;;;3599820;39;20467;-43
2021/04/19 10:27:58;;;;;;;10.63;9.73;;;24.40;94.20;;;;;;3600496;39;20494;-43
2021/04/19 10:30:27;;;;;;;9.27;8.60;;;24.40;94.20;;;;;;3588583;39;20478;-44
2021/04/19 10:32:54;;;;;;;9.30;8.70;;;24.40;94.20;;;;;;3597042;39;20481;-43
2021/04/19 10:35:31;;;;;;;9.60;8.80;;;24.40;94.20;;;;;;3608565;39;20818;-42
2021/04/19 10:37:59;;;;;;;9.53;8.60;;;24.40;94.20;;;;;;3599375;39;20570;-43
2021/04/19 10:40:27;;;;;;;9.30;8.57;;;24.40;94.20;;;;;;3600145;39;20586;-43
2021/04/19 10:43:04;;;;;;;9.00;8.20;;;24.40;94.30;;;;;;3602443;39;20760;-44
2021/04/19 10:45:32;;;;;;;10.63;9.47;;;24.40;94.30;;;;;;3598015;39;20908;-43
2021/04/19 10:48:32;;;;;;;9.73;8.83;;;24.40;94.30;;;;;;3602728;39;20493;-44
2021/04/19 10:51:17;;;;;;;8.80;8.20;;;24.40;94.30;;;;;;3604468;39;20471;-43
2021/04/19 10:53:46;;;;;;;8.80;8.20;;;24.40;94.30;;;;;;3601276;39;20924;-42
2021/04/19 10:56:21;;;;;;;9.30;8.40;;;24.40;94.30;;;;;;3599675;39;20457;-46
2021/04/19 10:58:50;;;;;;;8.63;8.13;;;24.40;94.40;;;;;;3605194;39;20499;-45
2021/04/19 11:01:23;;;;;;;9.47;8.40;;;24.40;94.40;;;;;;3601684;39;20508;-45
2021/04/19 11:03:54;;;;;;;9.07;8.47;;;24.40;94.40;;;;;;3603224;39;20982;-45
2021/04/19 11:06:21;;;;;;;9.23;8.50;;;24.40;94.40;;;;;;3598392;39;20495;-43
2021/04/19 11:08:55;;;;;;;9.70;8.90;;;24.40;94.40;;;;;;3601580;39;20469;-44
2021/04/19 11:11:37;;;;;;;8.37;7.77;;;24.40;94.40;;;;;;3601098;39;20472;-43
2021/04/19 11:14:16;;;;;;;8.53;8.03;;;24.30;94.40;;;;;;3589766;39;20477;-44
2021/04/19 11:16:56;;;;;;;8.43;7.80;;;24.40;94.40;;;;;;3600541;39;20606;-43
2021/04/19 11:19:30;;;;;;;8.73;8.13;;;24.40;94.50;;;;;;3600516;39;21159;-43
2021/04/19 11:21:57;;;;;;;9.87;8.77;;;24.30;94.40;;;;;;3599678;39;21170;-44
2021/04/19 11:24:35;;;;;;;8.57;7.97;;;24.30;94.50;;;;;;3597830;39;20598;-43
2021/04/19 11:27:05;;;;;;;9.27;8.40;;;24.30;94.50;;;;;;3596166;39;20815;-42
2021/04/19 11:29:38;;;;;;;8.97;8.30;;;24.30;94.50;;;;;;3600546;39;20478;-43
2021/04/19 11:32:07;;;;;;;8.87;8.17;;;24.30;94.50;;;;;;3598370;39;20496;-42
2021/04/19 11:34:36;;;;;;;9.77;9.07;;;24.30;94.60;;;;;;3600602;39;20493;-42
2021/04/19 11:37:04;;;;;;;8.37;7.90;;;24.30;94.60;;;;;;3599806;39;20472;-42
2021/04/19 11:39:37;;;;;;;9.43;8.80;;;24.30;94.60;;;;;;3606838;39;21211;-42
2021/04/19 11:42:06;;;;;;;9.03;8.30;;;24.30;94.60;;;;;;3608278;39;20547;-43
2021/04/19 11:44:53;;;;;;;8.80;8.27;;;24.30;94.60;;;;;;3609484;39;20952;-43
2021/04/19 11:47:21;;;;;;;8.73;8.10;;;24.30;94.60;;;;;;3595177;39;20575;-46
2021/04/19 11:49:50;;;;;;;8.63;8.13;;;24.30;94.90;;;;;;3599860;39;20478;-42
2021/04/19 11:52:17;;;;;;;9.17;8.47;;;24.30;94.60;;;;;;3601752;39;20607;-43
2021/04/19 11:54:44;;;;;;;9.53;8.73;;;24.30;94.70;;;;;;3599699;39;20493;-43
2021/04/19 11:57:11;;;;;;;9.23;8.53;;;24.20;94.60;;;;;;3599846;39;20601;-43
2021/04/19 11:59:38;;;;;;;8.57;8.07;;;24.30;94.70;;;;;;3601342;39;20543;-46
2021/04/19 12:02:05;;;;;;;8.30;7.60;;;24.20;94.60;;;;;;3595667;39;20509;-45
2021/04/19 12:04:33;;;;;;;9.10;8.60;;;24.20;94.60;;;;;;3598050;39;20521;-45
2021/04/19 12:07:00;;;;;;;9.10;8.40;;;24.20;94.70;;;;;;3597928;39;20488;-45
2021/04/19 12:09:26;;;;;;;9.27;8.40;;;24.20;94.70;;;;;;3596719;39;20479;-44
2021/04/19 12:11:53;;;;;;;8.73;8.23;;;24.20;94.70;;;;;;3599219;39;20477;-44
2021/04/19 12:14:20;;;;;;;8.73;8.23;;;24.20;94.70;;;;;;3598030;39;20476;-44
2021/04/19 12:16:46;;;;;;;9.07;8.47;;;24.30;94.80;;;;;;3578000;39;20499;-44
2021/04/19 12:19:14;;;;;;;8.83;8.23;;;24.20;94.70;;;;;;3593403;39;20639;-45
2021/04/19 12:21:42;;;;;;;8.30;7.80;;;24.30;94.80;;;;;;3595833;39;21017;-44
2021/04/19 12:24:09;;;;;;;9.53;8.90;;;24.20;95.10;;;;;;3583526;39;20506;-43
2021/04/19 12:26:36;;;;;;;10.10;9.40;;;24.30;94.80;;;;;;3600574;39;20467;-44
2021/04/19 12:29:03;;;;;;;10.13;9.33;;;24.20;94.80;;;;;;3599839;39;20613;-44
2021/04/19 12:31:30;;;;;;;9.97;9.27;;;24.20;94.80;;;;;;3593082;39;20663;-43
2021/04/19 12:33:56;;;;;;;8.93;8.17;;;24.20;94.80;;;;;;3583419;39;21042;-44
2021/04/19 12:36:23;;;;;;;8.40;7.90;;;24.20;94.80;;;;;;3590430;39;20482;-45
2021/04/19 12:38:53;;;;;;;9.37;8.67;;;24.20;94.80;;;;;;3594985;39;20485;-45
2021/04/19 12:41:20;;;;;;;8.03;7.57;;;24.20;94.90;;;;;;3598972;39;20950;-44
2021/04/19 12:43:47;;;;;;;8.80;8.27;;;24.20;94.90;;;;;;3599791;39;20486;-43
2021/04/19 12:46:15;;;;;;;8.63;8.03;;;24.20;94.90;;;;;;3595480;39;20560;-44
2021/04/19 12:48:43;;;;;;;9.23;8.53;;;24.20;94.90;;;;;;3594161;39;20540;-43
2021/04/19 12:51:11;;;;;;;9.20;8.60;;;24.20;94.90;;;;;;3599690;39;20480;-44